sensor_id;sensor_type;location;lat;lon;timestamp;temperature;humidity
68804;SHT31;55787;52.678;13.314;2023-06-26T00:01:03;16.80;95.35
68804;SHT31;55787;52.678;13.314;2023-06-26T00:03:32;16.76;95.66
68804;SHT31;55787;52.678;13.314;2023-06-26T00:05:59;16.76;95.80
68804;SHT31;55787;52.678;13.314;2023-06-26T00:08:28;16.71;95.67
68804;SHT31;55787;52.678;13.314;2023-06-26T00:10:55;16.69;95.58
68804;SHT31;55787;52.678;13.314;2023-06-26T00:13:22;16.67;95.74
68804;SHT31;55787;52.678;13.314;2023-06-26T00:15:50;16.66;95.65
68804;SHT31;55787;52.678;13.314;2023-06-26T00:18:18;16.63;95.71
68804;SHT31;55787;52.678;13.314;2023-06-26T00:20:44;16.63;95.95
68804;SHT31;55787;52.678;13.314;2023-06-26T00:23:12;16.62;95.99
68804;SHT31;55787;52.678;13.314;2023-06-26T00:25:39;16.62;96.19
68804;SHT31;55787;52.678;13.314;2023-06-26T00:28:06;16.60;96.12
68804;SHT31;55787;52.678;13.314;2023-06-26T00:30:33;16.62;96.16
68804;SHT31;55787;52.678;13.314;2023-06-26T00:33:00;16.59;96.13
68804;SHT31;55787;52.678;13.314;2023-06-26T00:35:27;16.57;96.34
68804;SHT31;55787;52.678;13.314;2023-06-26T00:37:54;16.60;96.31
68804;SHT31;55787;52.678;13.314;2023-06-26T00:40:20;16.62;96.29
68804;SHT31;55787;52.678;13.314;2023-06-26T00:42:47;16.66;96.39
68804;SHT31;55787;52.678;13.314;2023-06-26T00:45:14;16.69;96.51
68804;SHT31;55787;52.678;13.314;2023-06-26T00:47:41;16.76;96.44
68804;SHT31;55787;52.678;13.314;2023-06-26T00:50:08;16.79;96.61
68804;SHT31;55787;52.678;13.314;2023-06-26T00:52:35;16.83;96.60
68804;SHT31;55787;52.678;13.314;2023-06-26T00:55:03;16.88;96.48
68804;SHT31;55787;52.678;13.314;2023-06-26T00:57:30;16.88;96.37
68804;SHT31;55787;52.678;13.314;2023-06-26T00:59:57;16.93;96.45
68804;SHT31;55787;52.678;13.314;2023-06-26T01:02:24;16.97;96.52
68804;SHT31;55787;52.678;13.314;2023-06-26T01:04:53;16.97;96.51
68804;SHT31;55787;52.678;13.314;2023-06-26T01:07:21;17.01;96.51
68804;SHT31;55787;52.678;13.314;2023-06-26T01:09:48;17.03;96.67
68804;SHT31;55787;52.678;13.314;2023-06-26T01:12:16;17.06;96.76
68804;SHT31;55787;52.678;13.314;2023-06-26T01:14:43;17.11;96.72
68804;SHT31;55787;52.678;13.314;2023-06-26T01:17:10;17.12;96.63
68804;SHT31;55787;52.678;13.314;2023-06-26T01:19:42;17.12;96.46
68804;SHT31;55787;52.678;13.314;2023-06-26T01:25:41;17.17;96.65
68804;SHT31;55787;52.678;13.314;2023-06-26T01:28:17;17.20;96.63
68804;SHT31;55787;52.678;13.314;2023-06-26T01:30:46;17.20;96.54
68804;SHT31;55787;52.678;13.314;2023-06-26T01:33:14;17.24;96.67
68804;SHT31;55787;52.678;13.314;2023-06-26T01:35:41;17.27;96.62
68804;SHT31;55787;52.678;13.314;2023-06-26T01:40:40;17.32;96.67
68804;SHT31;55787;52.678;13.314;2023-06-26T01:43:15;17.34;96.51
68804;SHT31;55787;52.678;13.314;2023-06-26T01:45:48;17.35;96.49
68804;SHT31;55787;52.678;13.314;2023-06-26T01:48:22;17.35;96.41
68804;SHT31;55787;52.678;13.314;2023-06-26T01:50:51;17.39;96.38
68804;SHT31;55787;52.678;13.314;2023-06-26T01:53:21;17.39;96.35
68804;SHT31;55787;52.678;13.314;2023-06-26T01:55:53;17.42;96.39
68804;SHT31;55787;52.678;13.314;2023-06-26T01:58:23;17.43;96.47
68804;SHT31;55787;52.678;13.314;2023-06-26T02:00:50;17.43;96.34
68804;SHT31;55787;52.678;13.314;2023-06-26T02:03:17;17.45;96.37
68804;SHT31;55787;52.678;13.314;2023-06-26T02:05:44;17.49;96.35
68804;SHT31;55787;52.678;13.314;2023-06-26T02:08:14;17.45;96.22
68804;SHT31;55787;52.678;13.314;2023-06-26T02:10:41;17.48;96.38
68804;SHT31;55787;52.678;13.314;2023-06-26T02:13:09;17.45;96.25
68804;SHT31;55787;52.678;13.314;2023-06-26T02:15:36;17.46;96.18
68804;SHT31;55787;52.678;13.314;2023-06-26T02:18:06;17.45;96.29
68804;SHT31;55787;52.678;13.314;2023-06-26T02:20:34;17.42;96.19
68804;SHT31;55787;52.678;13.314;2023-06-26T02:23:04;17.43;96.29
68804;SHT31;55787;52.678;13.314;2023-06-26T02:25:31;17.45;96.38
68804;SHT31;55787;52.678;13.314;2023-06-26T02:27:57;17.45;96.29
68804;SHT31;55787;52.678;13.314;2023-06-26T02:30:24;17.43;96.40
68804;SHT31;55787;52.678;13.314;2023-06-26T02:32:51;17.43;96.33
68804;SHT31;55787;52.678;13.314;2023-06-26T02:35:17;17.41;96.39
68804;SHT31;55787;52.678;13.314;2023-06-26T02:37:44;17.39;96.37
68804;SHT31;55787;52.678;13.314;2023-06-26T02:40:11;17.38;96.41
68804;SHT31;55787;52.678;13.314;2023-06-26T02:42:39;17.34;96.39
68804;SHT31;55787;52.678;13.314;2023-06-26T02:45:06;17.34;96.41
68804;SHT31;55787;52.678;13.314;2023-06-26T02:47:33;17.31;96.33
68804;SHT31;55787;52.678;13.314;2023-06-26T02:49:59;17.24;96.25
68804;SHT31;55787;52.678;13.314;2023-06-26T02:52:26;17.20;96.38
68804;SHT31;55787;52.678;13.314;2023-06-26T02:54:55;17.18;96.58
68804;SHT31;55787;52.678;13.314;2023-06-26T02:57:21;17.14;96.49
68804;SHT31;55787;52.678;13.314;2023-06-26T02:59:49;17.12;96.59
68804;SHT31;55787;52.678;13.314;2023-06-26T03:02:15;17.08;96.53
68804;SHT31;55787;52.678;13.314;2023-06-26T03:04:42;17.04;96.55
68804;SHT31;55787;52.678;13.314;2023-06-26T03:07:09;17.03;96.59
68804;SHT31;55787;52.678;13.314;2023-06-26T03:09:36;16.99;96.73
68804;SHT31;55787;52.678;13.314;2023-06-26T03:12:03;16.95;96.89
68804;SHT31;55787;52.678;13.314;2023-06-26T03:14:30;16.94;97.02
68804;SHT31;55787;52.678;13.314;2023-06-26T03:16:58;16.90;97.07
68804;SHT31;55787;52.678;13.314;2023-06-26T03:19:30;16.90;97.33
68804;SHT31;55787;52.678;13.314;2023-06-26T03:21:57;16.87;97.36
68804;SHT31;55787;52.678;13.314;2023-06-26T03:24:23;16.83;97.33
68804;SHT31;55787;52.678;13.314;2023-06-26T03:26:50;16.84;97.30
68804;SHT31;55787;52.678;13.314;2023-06-26T03:29:18;16.80;97.32
68804;SHT31;55787;52.678;13.314;2023-06-26T03:31:44;16.79;97.48
68804;SHT31;55787;52.678;13.314;2023-06-26T03:34:11;16.79;97.51
68804;SHT31;55787;52.678;13.314;2023-06-26T03:36:38;16.79;97.56
68804;SHT31;55787;52.678;13.314;2023-06-26T03:39:04;16.79;97.55
68804;SHT31;55787;52.678;13.314;2023-06-26T03:41:31;16.77;97.61
68804;SHT31;55787;52.678;13.314;2023-06-26T03:43:58;16.80;97.56
68804;SHT31;55787;52.678;13.314;2023-06-26T03:46:26;16.80;97.64
68804;SHT31;55787;52.678;13.314;2023-06-26T03:48:53;16.81;97.59
68804;SHT31;55787;52.678;13.314;2023-06-26T03:51:20;16.84;97.66
68804;SHT31;55787;52.678;13.314;2023-06-26T03:53:47;16.85;97.73
68804;SHT31;55787;52.678;13.314;2023-06-26T03:56:13;16.90;97.69
68804;SHT31;55787;52.678;13.314;2023-06-26T03:58:40;16.91;97.74
68804;SHT31;55787;52.678;13.314;2023-06-26T04:01:07;16.99;97.69
68804;SHT31;55787;52.678;13.314;2023-06-26T04:03:33;17.04;97.64
68804;SHT31;55787;52.678;13.314;2023-06-26T04:06:00;17.12;97.72
68804;SHT31;55787;52.678;13.314;2023-06-26T04:08:27;17.35;97.75
68804;SHT31;55787;52.678;13.314;2023-06-26T04:10:54;17.49;97.43
68804;SHT31;55787;52.678;13.314;2023-06-26T04:13:21;17.63;97.09
68804;SHT31;55787;52.678;13.314;2023-06-26T04:15:48;17.76;96.76
68804;SHT31;55787;52.678;13.314;2023-06-26T04:18:15;17.89;96.05
68804;SHT31;55787;52.678;13.314;2023-06-26T04:23:32;18.07;95.63
68804;SHT31;55787;52.678;13.314;2023-06-26T04:25:59;18.14;95.03
68804;SHT31;55787;52.678;13.314;2023-06-26T04:28:25;18.20;94.80
68804;SHT31;55787;52.678;13.314;2023-06-26T04:30:52;18.24;94.57
68804;SHT31;55787;52.678;13.314;2023-06-26T04:33:20;18.30;94.47
68804;SHT31;55787;52.678;13.314;2023-06-26T04:35:46;18.33;94.21
68804;SHT31;55787;52.678;13.314;2023-06-26T04:38:15;18.41;93.55
68804;SHT31;55787;52.678;13.314;2023-06-26T04:40:42;18.47;93.34
68804;SHT31;55787;52.678;13.314;2023-06-26T04:43:09;18.51;93.33
68804;SHT31;55787;52.678;13.314;2023-06-26T04:45:35;18.60;93.04
68804;SHT31;55787;52.678;13.314;2023-06-26T04:48:03;18.65;93.11
68804;SHT31;55787;52.678;13.314;2023-06-26T04:50:30;18.69;92.69
68804;SHT31;55787;52.678;13.314;2023-06-26T04:52:57;18.76;92.68
68804;SHT31;55787;52.678;13.314;2023-06-26T04:55:24;18.88;92.35
68804;SHT31;55787;52.678;13.314;2023-06-26T04:57:51;19.01;91.90
68804;SHT31;55787;52.678;13.314;2023-06-26T05:00:18;19.16;91.35
68804;SHT31;55787;52.678;13.314;2023-06-26T05:02:45;19.23;91.33
68804;SHT31;55787;52.678;13.314;2023-06-26T05:05:12;19.40;90.65
68804;SHT31;55787;52.678;13.314;2023-06-26T05:07:41;19.64;89.67
68804;SHT31;55787;52.678;13.314;2023-06-26T05:10:08;19.74;89.57
68804;SHT31;55787;52.678;13.314;2023-06-26T05:12:34;19.82;89.47
68804;SHT31;55787;52.678;13.314;2023-06-26T05:15:01;19.97;89.17
68804;SHT31;55787;52.678;13.314;2023-06-26T05:17:29;20.17;88.42
68804;SHT31;55787;52.678;13.314;2023-06-26T05:19:56;20.36;87.28
68804;SHT31;55787;52.678;13.314;2023-06-26T05:22:22;20.63;86.53
68804;SHT31;55787;52.678;13.314;2023-06-26T05:24:50;20.91;86.08
68804;SHT31;55787;52.678;13.314;2023-06-26T05:27:19;21.30;83.79
68804;SHT31;55787;52.678;13.314;2023-06-26T05:29:49;21.57;83.53
68804;SHT31;55787;52.678;13.314;2023-06-26T05:32:16;21.83;82.04
68804;SHT31;55787;52.678;13.314;2023-06-26T05:34:47;22.09;81.02
68804;SHT31;55787;52.678;13.314;2023-06-26T05:37:20;22.27;80.25
68804;SHT31;55787;52.678;13.314;2023-06-26T05:39:47;22.43;80.07
68804;SHT31;55787;52.678;13.314;2023-06-26T05:42:15;22.57;79.70
68804;SHT31;55787;52.678;13.314;2023-06-26T05:44:41;22.61;77.34
68804;SHT31;55787;52.678;13.314;2023-06-26T05:47:08;22.61;78.62
68804;SHT31;55787;52.678;13.314;2023-06-26T05:49:35;22.67;78.41
68804;SHT31;55787;52.678;13.314;2023-06-26T05:52:02;22.77;77.70
68804;SHT31;55787;52.678;13.314;2023-06-26T05:54:29;22.83;77.74
68804;SHT31;55787;52.678;13.314;2023-06-26T05:56:57;22.94;77.15
68804;SHT31;55787;52.678;13.314;2023-06-26T05:59:27;23.08;76.88
68804;SHT31;55787;52.678;13.314;2023-06-26T06:01:54;23.14;75.48
68804;SHT31;55787;52.678;13.314;2023-06-26T06:04:22;23.28;74.95
68804;SHT31;55787;52.678;13.314;2023-06-26T06:06:48;23.36;75.73
68804;SHT31;55787;52.678;13.314;2023-06-26T06:09:15;23.59;74.84
68804;SHT31;55787;52.678;13.314;2023-06-26T06:11:42;23.73;74.63
68804;SHT31;55787;52.678;13.314;2023-06-26T06:14:08;23.87;74.52
68804;SHT31;55787;52.678;13.314;2023-06-26T06:16:35;24.01;72.62
68804;SHT31;55787;52.678;13.314;2023-06-26T06:19:02;24.11;71.76
68804;SHT31;55787;52.678;13.314;2023-06-26T06:21:29;24.39;71.98
68804;SHT31;55787;52.678;13.314;2023-06-26T06:23:56;25.02;69.21
68804;SHT31;55787;52.678;13.314;2023-06-26T06:26:23;25.84;66.05
68804;SHT31;55787;52.678;13.314;2023-06-26T06:28:50;27.76;60.66
68804;SHT31;55787;52.678;13.314;2023-06-26T06:31:16;28.36;57.24
68804;SHT31;55787;52.678;13.314;2023-06-26T06:33:43;29.50;54.90
68804;SHT31;55787;52.678;13.314;2023-06-26T06:36:10;30.14;53.31
68804;SHT31;55787;52.678;13.314;2023-06-26T06:38:36;30.78;50.50
68804;SHT31;55787;52.678;13.314;2023-06-26T06:41:03;30.38;49.44
68804;SHT31;55787;52.678;13.314;2023-06-26T06:43:30;29.36;51.24
68804;SHT31;55787;52.678;13.314;2023-06-26T06:45:56;30.80;48.72
68804;SHT31;55787;52.678;13.314;2023-06-26T06:48:23;31.78;47.96
68804;SHT31;55787;52.678;13.314;2023-06-26T06:50:50;32.22;45.86
68804;SHT31;55787;52.678;13.314;2023-06-26T06:53:17;31.64;45.57
68804;SHT31;55787;52.678;13.314;2023-06-26T06:55:46;31.77;49.29
68804;SHT31;55787;52.678;13.314;2023-06-26T06:58:13;30.79;46.49
68804;SHT31;55787;52.678;13.314;2023-06-26T07:00:40;31.21;46.27
68804;SHT31;55787;52.678;13.314;2023-06-26T07:03:07;32.02;45.59
68804;SHT31;55787;52.678;13.314;2023-06-26T07:05:34;32.98;43.08
68804;SHT31;55787;52.678;13.314;2023-06-26T07:08:00;33.32;42.29
68804;SHT31;55787;52.678;13.314;2023-06-26T07:10:28;34.06;41.83
68804;SHT31;55787;52.678;13.314;2023-06-26T07:12:55;34.33;40.65
68804;SHT31;55787;52.678;13.314;2023-06-26T07:15:22;33.78;42.28
68804;SHT31;55787;52.678;13.314;2023-06-26T07:17:49;32.70;43.96
68804;SHT31;55787;52.678;13.314;2023-06-26T07:20:16;33.90;41.00
68804;SHT31;55787;52.678;13.314;2023-06-26T07:22:43;34.41;40.90
68804;SHT31;55787;52.678;13.314;2023-06-26T07:25:11;33.28;40.60
68804;SHT31;55787;52.678;13.314;2023-06-26T07:27:41;33.96;41.93
68804;SHT31;55787;52.678;13.314;2023-06-26T07:30:08;32.74;41.31
68804;SHT31;55787;52.678;13.314;2023-06-26T07:32:36;31.96;44.14
68804;SHT31;55787;52.678;13.314;2023-06-26T07:35:03;33.66;42.24
68804;SHT31;55787;52.678;13.314;2023-06-26T07:37:30;32.83;42.02
68804;SHT31;55787;52.678;13.314;2023-06-26T07:39:57;34.84;38.11
68804;SHT31;55787;52.678;13.314;2023-06-26T07:42:23;35.36;38.27
68804;SHT31;55787;52.678;13.314;2023-06-26T07:44:50;35.43;36.76
68804;SHT31;55787;52.678;13.314;2023-06-26T07:47:17;34.24;37.30
68804;SHT31;55787;52.678;13.314;2023-06-26T07:49:44;33.59;39.98
68804;SHT31;55787;52.678;13.314;2023-06-26T07:52:11;34.00;38.17
68804;SHT31;55787;52.678;13.314;2023-06-26T07:54:37;33.83;39.25
68804;SHT31;55787;52.678;13.314;2023-06-26T07:57:05;34.63;39.51
68804;SHT31;55787;52.678;13.314;2023-06-26T07:59:35;35.74;37.17
68804;SHT31;55787;52.678;13.314;2023-06-26T08:02:02;35.89;37.10
68804;SHT31;55787;52.678;13.314;2023-06-26T08:04:29;36.25;36.66
68804;SHT31;55787;52.678;13.314;2023-06-26T08:06:59;36.98;34.89
68804;SHT31;55787;52.678;13.314;2023-06-26T08:09:28;37.15;33.78
68804;SHT31;55787;52.678;13.314;2023-06-26T08:11:55;37.53;32.73
68804;SHT31;55787;52.678;13.314;2023-06-26T08:14:22;35.18;35.39
68804;SHT31;55787;52.678;13.314;2023-06-26T08:16:50;33.92;38.40
68804;SHT31;55787;52.678;13.314;2023-06-26T08:19:17;34.43;36.23
68804;SHT31;55787;52.678;13.314;2023-06-26T08:21:45;34.44;36.82
68804;SHT31;55787;52.678;13.314;2023-06-26T08:24:12;36.28;34.53
68804;SHT31;55787;52.678;13.314;2023-06-26T08:26:40;37.13;34.64
68804;SHT31;55787;52.678;13.314;2023-06-26T08:29:06;37.92;33.42
68804;SHT31;55787;52.678;13.314;2023-06-26T08:31:39;35.38;33.67
68804;SHT31;55787;52.678;13.314;2023-06-26T08:34:07;36.48;34.12
68804;SHT31;55787;52.678;13.314;2023-06-26T08:36:34;37.67;31.41
68804;SHT31;55787;52.678;13.314;2023-06-26T08:39:01;38.29;30.83
68804;SHT31;55787;52.678;13.314;2023-06-26T08:41:27;36.99;31.59
68804;SHT31;55787;52.678;13.314;2023-06-26T08:43:54;37.78;33.08
68804;SHT31;55787;52.678;13.314;2023-06-26T08:46:21;38.70;31.08
68804;SHT31;55787;52.678;13.314;2023-06-26T08:48:49;38.75;30.56
68804;SHT31;55787;52.678;13.314;2023-06-26T08:51:21;38.82;31.61
68804;SHT31;55787;52.678;13.314;2023-06-26T08:53:57;38.65;31.05
68804;SHT31;55787;52.678;13.314;2023-06-26T08:56:28;39.09;30.78
68804;SHT31;55787;52.678;13.314;2023-06-26T08:58:57;38.99;31.64
68804;SHT31;55787;52.678;13.314;2023-06-26T09:01:25;36.92;33.97
68804;SHT31;55787;52.678;13.314;2023-06-26T09:03:52;37.70;31.43
68804;SHT31;55787;52.678;13.314;2023-06-26T09:06:19;38.72;30.85
68804;SHT31;55787;52.678;13.314;2023-06-26T09:08:45;36.38;32.39
68804;SHT31;55787;52.678;13.314;2023-06-26T09:11:12;35.32;34.87
68804;SHT31;55787;52.678;13.314;2023-06-26T09:13:39;37.25;32.04
68804;SHT31;55787;52.678;13.314;2023-06-26T09:16:07;36.35;32.96
68804;SHT31;55787;52.678;13.314;2023-06-26T09:18:36;37.44;31.72
68804;SHT31;55787;52.678;13.314;2023-06-26T09:21:07;38.42;31.34
68804;SHT31;55787;52.678;13.314;2023-06-26T09:23:35;38.87;31.79
68804;SHT31;55787;52.678;13.314;2023-06-26T09:26:05;37.88;31.85
68804;SHT31;55787;52.678;13.314;2023-06-26T09:28:32;38.59;30.50
68804;SHT31;55787;52.678;13.314;2023-06-26T09:31:03;39.09;32.03
68804;SHT31;55787;52.678;13.314;2023-06-26T09:33:38;39.14;32.35
68804;SHT31;55787;52.678;13.314;2023-06-26T09:36:09;37.61;30.78
68804;SHT31;55787;52.678;13.314;2023-06-26T09:38:38;39.27;30.53
68804;SHT31;55787;52.678;13.314;2023-06-26T09:41:05;38.82;28.94
68804;SHT31;55787;52.678;13.314;2023-06-26T09:43:31;38.83;31.13
68804;SHT31;55787;52.678;13.314;2023-06-26T09:46:00;39.74;31.57
68804;SHT31;55787;52.678;13.314;2023-06-26T09:48:28;40.18;29.98
68804;SHT31;55787;52.678;13.314;2023-06-26T09:50:55;40.67;28.26
68804;SHT31;55787;52.678;13.314;2023-06-26T09:53:38;37.74;30.02
68804;SHT31;55787;52.678;13.314;2023-06-26T09:56:06;35.97;31.19
68804;SHT31;55787;52.678;13.314;2023-06-26T09:58:35;37.37;32.22
68804;SHT31;55787;52.678;13.314;2023-06-26T10:01:03;38.20;30.64
68804;SHT31;55787;52.678;13.314;2023-06-26T10:03:30;38.79;29.90
68804;SHT31;55787;52.678;13.314;2023-06-26T10:05:57;39.87;29.20
68804;SHT31;55787;52.678;13.314;2023-06-26T10:08:24;38.75;31.78
68804;SHT31;55787;52.678;13.314;2023-06-26T10:10:52;37.90;31.85
68804;SHT31;55787;52.678;13.314;2023-06-26T10:13:22;38.59;30.86
68804;SHT31;55787;52.678;13.314;2023-06-26T10:15:51;38.18;30.40
68804;SHT31;55787;52.678;13.314;2023-06-26T10:18:18;37.76;30.52
68804;SHT31;55787;52.678;13.314;2023-06-26T10:20:48;37.98;30.29
68804;SHT31;55787;52.678;13.314;2023-06-26T10:23:16;39.88;29.99
68804;SHT31;55787;52.678;13.314;2023-06-26T10:25:45;38.38;29.88
68804;SHT31;55787;52.678;13.314;2023-06-26T10:28:14;39.11;29.79
68804;SHT31;55787;52.678;13.314;2023-06-26T10:30:43;39.65;30.50
68804;SHT31;55787;52.678;13.314;2023-06-26T10:33:11;40.08;28.78
68804;SHT31;55787;52.678;13.314;2023-06-26T10:35:44;40.06;28.96
68804;SHT31;55787;52.678;13.314;2023-06-26T10:38:11;40.08;28.77
68804;SHT31;55787;52.678;13.314;2023-06-26T10:40:45;39.84;28.78
68804;SHT31;55787;52.678;13.314;2023-06-26T10:43:13;39.43;30.23
68804;SHT31;55787;52.678;13.314;2023-06-26T10:45:47;39.71;29.25
68804;SHT31;55787;52.678;13.314;2023-06-26T10:48:19;39.57;28.33
68804;SHT31;55787;52.678;13.314;2023-06-26T10:50:49;39.19;27.59
68804;SHT31;55787;52.678;13.314;2023-06-26T10:56:03;39.75;29.56
68804;SHT31;55787;52.678;13.314;2023-06-26T11:06:25;40.22;30.15
68804;SHT31;55787;52.678;13.314;2023-06-26T11:11:55;38.17;30.87
68804;SHT31;55787;52.678;13.314;2023-06-26T11:14:26;35.65;33.06
68804;SHT31;55787;52.678;13.314;2023-06-26T11:16:56;36.76;31.58
68804;SHT31;55787;52.678;13.314;2023-06-26T11:19:26;36.96;31.87
68804;SHT31;55787;52.678;13.314;2023-06-26T11:22:04;37.67;30.87
68804;SHT31;55787;52.678;13.314;2023-06-26T11:24:33;38.00;30.94
68804;SHT31;55787;52.678;13.314;2023-06-26T11:27:01;38.73;31.81
68804;SHT31;55787;52.678;13.314;2023-06-26T11:29:29;39.88;32.00
68804;SHT31;55787;52.678;13.314;2023-06-26T11:32:01;39.48;29.43
68804;SHT31;55787;52.678;13.314;2023-06-26T11:34:31;38.17;29.88
68804;SHT31;55787;52.678;13.314;2023-06-26T11:36:58;39.03;31.75
68804;SHT31;55787;52.678;13.314;2023-06-26T11:39:27;39.97;29.98
68804;SHT31;55787;52.678;13.314;2023-06-26T11:41:54;40.56;28.73
68804;SHT31;55787;52.678;13.314;2023-06-26T11:44:21;39.02;29.23
68804;SHT31;55787;52.678;13.314;2023-06-26T11:46:51;39.03;30.43
68804;SHT31;55787;52.678;13.314;2023-06-26T11:49:18;40.28;31.19
68804;SHT31;55787;52.678;13.314;2023-06-26T11:51:46;40.97;30.28
68804;SHT31;55787;52.678;13.314;2023-06-26T11:54:13;40.82;27.36
68804;SHT31;55787;52.678;13.314;2023-06-26T11:56:41;38.96;29.13
68804;SHT31;55787;52.678;13.314;2023-06-26T11:59:11;39.28;30.56
68804;SHT31;55787;52.678;13.314;2023-06-26T12:04:06;38.21;31.45
68804;SHT31;55787;52.678;13.314;2023-06-26T12:06:34;36.52;32.26
68804;SHT31;55787;52.678;13.314;2023-06-26T12:09:04;38.75;31.89
68804;SHT31;55787;52.678;13.314;2023-06-26T12:11:33;39.74;29.28
68804;SHT31;55787;52.678;13.314;2023-06-26T12:14:01;38.14;31.95
68804;SHT31;55787;52.678;13.314;2023-06-26T12:16:29;39.23;31.90
68804;SHT31;55787;52.678;13.314;2023-06-26T12:19:00;38.75;30.77
68804;SHT31;55787;52.678;13.314;2023-06-26T12:24:08;37.15;30.89
68804;SHT31;55787;52.678;13.314;2023-06-26T12:26:35;37.22;32.51
68804;SHT31;55787;52.678;13.314;2023-06-26T12:29:07;36.99;33.34
68804;SHT31;55787;52.678;13.314;2023-06-26T12:31:33;38.52;31.39
68804;SHT31;55787;52.678;13.314;2023-06-26T12:34:00;39.07;31.22
68804;SHT31;55787;52.678;13.314;2023-06-26T12:36:27;39.28;31.10
68804;SHT31;55787;52.678;13.314;2023-06-26T12:38:54;39.60;30.57
68804;SHT31;55787;52.678;13.314;2023-06-26T12:41:24;38.92;30.51
68804;SHT31;55787;52.678;13.314;2023-06-26T12:43:55;38.00;33.11
68804;SHT31;55787;52.678;13.314;2023-06-26T12:46:35;38.93;30.53
68804;SHT31;55787;52.678;13.314;2023-06-26T12:49:02;38.92;30.01
68804;SHT31;55787;52.678;13.314;2023-06-26T12:51:37;37.81;31.94
68804;SHT31;55787;52.678;13.314;2023-06-26T12:54:04;37.64;32.33
68804;SHT31;55787;52.678;13.314;2023-06-26T12:56:31;37.42;34.79
68804;SHT31;55787;52.678;13.314;2023-06-26T12:58:57;36.56;35.07
68804;SHT31;55787;52.678;13.314;2023-06-26T13:01:25;35.22;34.30
68804;SHT31;55787;52.678;13.314;2023-06-26T13:03:51;34.70;39.20
68804;SHT31;55787;52.678;13.314;2023-06-26T13:06:19;35.08;35.29
68804;SHT31;55787;52.678;13.314;2023-06-26T13:08:45;34.30;35.58
68804;SHT31;55787;52.678;13.314;2023-06-26T13:11:12;33.49;37.21
68804;SHT31;55787;52.678;13.314;2023-06-26T13:13:39;32.70;39.91
68804;SHT31;55787;52.678;13.314;2023-06-26T13:16:05;31.78;39.46
68804;SHT31;55787;52.678;13.314;2023-06-26T13:18:32;31.86;40.12
68804;SHT31;55787;52.678;13.314;2023-06-26T13:20:59;31.98;42.28
68804;SHT31;55787;52.678;13.314;2023-06-26T13:23:27;32.19;40.02
68804;SHT31;55787;52.678;13.314;2023-06-26T13:25:54;31.80;42.14
68804;SHT31;55787;52.678;13.314;2023-06-26T13:28:21;31.47;40.97
68804;SHT31;55787;52.678;13.314;2023-06-26T13:30:47;31.40;43.38
68804;SHT31;55787;52.678;13.314;2023-06-26T13:33:14;31.20;44.11
68804;SHT31;55787;52.678;13.314;2023-06-26T13:35:41;30.94;42.07
68804;SHT31;55787;52.678;13.314;2023-06-26T13:38:07;30.82;44.05
68804;SHT31;55787;52.678;13.314;2023-06-26T13:40:34;30.66;43.41
68804;SHT31;55787;52.678;13.314;2023-06-26T13:43:01;30.69;43.77
68804;SHT31;55787;52.678;13.314;2023-06-26T13:45:28;30.83;44.43
68804;SHT31;55787;52.678;13.314;2023-06-26T13:47:57;30.90;46.22
68804;SHT31;55787;52.678;13.314;2023-06-26T13:50:24;30.75;48.20
68804;SHT31;55787;52.678;13.314;2023-06-26T13:52:51;30.35;44.54
68804;SHT31;55787;52.678;13.314;2023-06-26T13:55:18;30.34;48.30
68804;SHT31;55787;52.678;13.314;2023-06-26T13:57:44;30.05;45.03
68804;SHT31;55787;52.678;13.314;2023-06-26T14:00:12;29.91;45.56
68804;SHT31;55787;52.678;13.314;2023-06-26T14:02:40;29.80;48.14
68804;SHT31;55787;52.678;13.314;2023-06-26T14:05:06;29.67;50.73
68804;SHT31;55787;52.678;13.314;2023-06-26T14:07:34;29.37;46.95
68804;SHT31;55787;52.678;13.314;2023-06-26T14:10:01;29.23;51.53
68804;SHT31;55787;52.678;13.314;2023-06-26T14:12:27;29.15;51.11
68804;SHT31;55787;52.678;13.314;2023-06-26T14:14:54;28.90;55.07
68804;SHT31;55787;52.678;13.314;2023-06-26T14:17:21;27.82;63.98
68804;SHT31;55787;52.678;13.314;2023-06-26T14:19:50;26.16;70.98
68804;SHT31;55787;52.678;13.314;2023-06-26T14:22:18;25.13;75.35
68804;SHT31;55787;52.678;13.314;2023-06-26T14:24:44;24.48;77.73
68804;SHT31;55787;52.678;13.314;2023-06-26T14:27:11;24.27;79.13
68804;SHT31;55787;52.678;13.314;2023-06-26T14:29:38;24.03;79.18
68804;SHT31;55787;52.678;13.314;2023-06-26T14:32:06;23.79;80.41
68804;SHT31;55787;52.678;13.314;2023-06-26T14:34:33;23.65;81.10
68804;SHT31;55787;52.678;13.314;2023-06-26T14:37:00;23.59;80.98
68804;SHT31;55787;52.678;13.314;2023-06-26T14:39:27;23.52;81.81
68804;SHT31;55787;52.678;13.314;2023-06-26T14:41:54;23.43;82.16
68804;SHT31;55787;52.678;13.314;2023-06-26T14:44:21;23.43;82.88
68804;SHT31;55787;52.678;13.314;2023-06-26T14:46:49;23.35;82.84
68804;SHT31;55787;52.678;13.314;2023-06-26T14:49:15;23.22;84.22
68804;SHT31;55787;52.678;13.314;2023-06-26T14:51:42;23.20;84.21
68804;SHT31;55787;52.678;13.314;2023-06-26T14:54:09;23.04;83.40
68804;SHT31;55787;52.678;13.314;2023-06-26T14:56:35;22.95;84.27
68804;SHT31;55787;52.678;13.314;2023-06-26T14:59:02;22.86;83.64
68804;SHT31;55787;52.678;13.314;2023-06-26T15:01:29;22.78;84.55
68804;SHT31;55787;52.678;13.314;2023-06-26T15:03:56;22.53;83.76
68804;SHT31;55787;52.678;13.314;2023-06-26T15:06:23;22.00;85.63
68804;SHT31;55787;52.678;13.314;2023-06-26T15:08:50;22.03;86.18
68804;SHT31;55787;52.678;13.314;2023-06-26T15:11:18;22.12;86.50
68804;SHT31;55787;52.678;13.314;2023-06-26T15:13:45;22.03;85.52
68804;SHT31;55787;52.678;13.314;2023-06-26T15:16:11;21.61;85.14
68804;SHT31;55787;52.678;13.314;2023-06-26T15:18:38;21.10;85.94
68804;SHT31;55787;52.678;13.314;2023-06-26T15:21:05;21.21;85.23
68804;SHT31;55787;52.678;13.314;2023-06-26T15:23:31;21.24;86.63
68804;SHT31;55787;52.678;13.314;2023-06-26T15:25:58;21.34;86.85
68804;SHT31;55787;52.678;13.314;2023-06-26T15:28:25;21.44;85.86
68804;SHT31;55787;52.678;13.314;2023-06-26T15:30:52;21.63;86.92
68804;SHT31;55787;52.678;13.314;2023-06-26T15:33:19;21.82;87.78
68804;SHT31;55787;52.678;13.314;2023-06-26T15:35:45;21.96;86.36
68804;SHT31;55787;52.678;13.314;2023-06-26T15:38:12;22.24;86.44
68804;SHT31;55787;52.678;13.314;2023-06-26T15:40:38;22.40;84.85
68804;SHT31;55787;52.678;13.314;2023-06-26T15:43:05;22.54;85.14
68804;SHT31;55787;52.678;13.314;2023-06-26T15:45:32;22.67;85.95